This is the latest recevied weather packets stored in our database for station/object LW9ERO-3. If no packets are shown the sender has not sent any weather packets the latest 10 day(s).
| Time | Temp. | Humidity | Pressure | Rain* | Wind** | Luminosity | Snow |
|---|---|---|---|---|---|---|---|
| 1788010563 | 17.22° C | 43% | 1014.7 hPa | 0 mm | - | - | - |
| 1788010024 | 17.22° C | 44% | 1014.6 hPa | 0 mm | - | - | - |
| 1788009484 | 16.67° C | 46% | 1014.7 hPa | 0 mm | - | - | - |
| 1788008943 | 16.67° C | 46% | 1014.8 hPa | 0 mm | - | - | - |
| 1788008404 | 16.11° C | 50% | 1014.8 hPa | 0 mm | - | - | - |
| 1788008044 | 15.56° C | 51% | 1014.7 hPa | 0 mm | - | - | - |
| 1788007503 | 15.56° C | 52% | 1014.7 hPa | 0 mm | - | - | - |
| 1788006963 | 15° C | 54% | 1014.8 hPa | 0 mm | - | - | - |
| 1788006424 | 14.44° C | 58% | 1014.7 hPa | 0 mm | - | - | - |
| 1788005883 | 13.89° C | 61% | 1014.6 hPa | 0 mm | - | - | - |
| 1788005343 | 13.33° C | 63% | 1014.5 hPa | 0 mm | - | - | - |
| 1788004803 | 12.22° C | 66% | 1014.6 hPa | 0 mm | - | - | - |
| 1788004444 | 12.22° C | 68% | 1014.5 hPa | 0 mm | - | - | - |
| 1788003903 | 11.11° C | 70% | 1014.4 hPa | 0 mm | - | - | - |
| 1788003364 | 10.56° C | 72% | 1014.4 hPa | 0 mm | - | - | - |
| 1788002824 | 10° C | 74% | 1014 hPa | 0 mm | - | - | - |
| 1788002284 | 9.44° C | 77% | 1014 hPa | 0 mm | - | - | - |
| 1788001743 | 8.33° C | 79% | 1013.9 hPa | 0 mm | - | - | - |
| 1788001203 | 7.78° C | 79% | 1013.9 hPa | 0 mm | - | - | - |
| 1788000844 | 7.78° C | 79% | 1013.9 hPa | 0 mm | - | - | - |
| 1788000304 | 7.78° C | 79% | 1013.9 hPa | 0 mm | - | - | - |
| 1787999764 | 7.78° C | 78% | 1013.8 hPa | 0 mm | - | - | - |
| 1787999223 | 7.78° C | 78% | 1013.8 hPa | 0 mm | - | - | - |
| 1787998684 | 7.78° C | 78% | 1013.9 hPa | 0 mm | - | - | - |
| 1787998145 | 7.78° C | 78% | 1013.9 hPa | 0 mm | - | - | - |
* Rain latest hour (hover to see other rain measurements)
** Current wind speed in m/s (hover to see current wind gust speed)